Time;durP1;ratioP1;P1;durP2;ratioP2;P2;SDS_P1;SDS_P2;PMS_P1;PMS_P2;Temp;Humidity;BMP_temperature;BMP_pressure;BME280_temperature;BME280_humidity;BME280_pressure;Samples;Min_cycle;Max_cycle;Signal;HPM_P1;HPM_P2
2021/08/06 00:02:24;;;;;;;2.97;2.70;;;22.40;70.30;;;;;;5012023;28;20058;-46
2021/08/06 00:04:49;;;;;;;2.15;1.95;;;22.40;70.30;;;;;;5011876;28;20054;-50
2021/08/06 00:07:15;;;;;;;2.40;2.20;;;22.40;70.30;;;;;;5012015;28;20168;-49
2021/08/06 00:09:41;;;;;;;2.38;2.17;;;22.40;70.30;;;;;;5012753;28;20041;-49
2021/08/06 00:12:08;;;;;;;2.47;2.28;;;22.30;70.20;;;;;;5012255;28;20508;-48
2021/08/06 00:14:35;;;;;;;2.35;2.15;;;22.20;70.20;;;;;;5011990;28;20050;-49
2021/08/06 00:17:01;;;;;;;2.30;2.10;;;22.40;71.00;;;;;;5012272;28;20127;-50
2021/08/06 00:19:26;;;;;;;2.80;2.20;;;22.30;70.30;;;;;;5012384;28;20490;-49
2021/08/06 00:21:52;;;;;;;2.20;2.00;;;22.30;70.30;;;;;;5012115;28;20048;-51
2021/08/06 00:24:18;;;;;;;2.63;2.33;;;22.30;70.30;;;;;;5011814;28;20050;-47
2021/08/06 00:26:45;;;;;;;2.17;1.98;;;22.30;70.30;;;;;;5012536;28;20522;-46
2021/08/06 00:29:10;;;;;;;2.28;2.08;;;22.30;70.30;;;;;;5011888;28;20551;-47
2021/08/06 00:31:38;;;;;;;2.78;2.58;;;22.30;70.30;;;;;;5012104;28;20080;-47
2021/08/06 00:34:03;;;;;;;2.13;1.92;;;22.40;70.30;;;;;;5011614;28;20053;-43
2021/08/06 00:36:29;;;;;;;2.20;2.00;;;22.30;70.30;;;;;;5011794;28;20053;-44
2021/08/06 00:38:55;;;;;;;2.30;2.10;;;22.30;70.30;;;;;;5009315;28;20042;-46
2021/08/06 00:41:21;;;;;;;2.72;2.20;;;22.30;70.30;;;;;;5012163;28;20048;-47
2021/08/06 00:43:46;;;;;;;2.35;2.15;;;22.20;70.30;;;;;;5012131;28;20533;-46
2021/08/06 00:46:16;;;;;;;2.22;2.03;;;22.30;70.30;;;;;;5010518;28;20058;-45
2021/08/06 00:48:42;;;;;;;2.45;2.25;;;22.30;70.40;;;;;;5011932;28;20073;-45
2021/08/06 00:51:08;;;;;;;2.97;2.20;;;22.30;70.30;;;;;;5012051;28;20092;-44
2021/08/06 00:53:37;;;;;;;2.40;2.20;;;22.30;70.30;;;;;;5011471;28;20052;-47
2021/08/06 00:56:04;;;;;;;2.13;2.00;;;22.30;70.40;;;;;;5014948;28;20063;-47
2021/08/06 00:58:30;;;;;;;2.28;2.08;;;22.30;70.30;;;;;;5014348;28;20104;-42
2021/08/06 01:00:56;;;;;;;2.33;2.13;;;22.30;70.40;;;;;;5015690;28;20108;-43
2021/08/06 01:03:41;;;;;;;2.30;2.10;;;22.30;70.40;;;;;;5014928;28;20038;-40
2021/08/06 01:06:23;;;;;;;2.45;2.25;;;22.30;70.40;;;;;;5014506;28;20092;-44
2021/08/06 01:08:55;;;;;;;2.60;2.40;;;22.20;70.30;;;;;;5014741;28;20046;-45
2021/08/06 01:11:25;;;;;;;2.42;2.20;;;22.20;70.40;;;;;;5013221;28;20065;-46
2021/08/06 01:13:55;;;;;;;2.10;1.90;;;22.20;70.40;;;;;;5014951;28;20046;-44
2021/08/06 01:16:30;;;;;;;2.00;1.90;;;22.30;70.50;;;;;;5014628;28;20154;-47
2021/08/06 01:19:07;;;;;;;2.35;2.15;;;22.20;70.40;;;;;;5014602;28;20042;-46
2021/08/06 01:21:42;;;;;;;2.47;2.28;;;22.30;70.40;;;;;;5014916;28;20069;-46
2021/08/06 01:24:13;;;;;;;2.30;2.10;;;22.30;70.50;;;;;;5015179;28;20041;-43
2021/08/06 01:26:42;;;;;;;2.45;2.05;;;22.20;70.40;;;;;;5012580;28;20060;-49
2021/08/06 01:29:08;;;;;;;2.30;2.10;;;22.20;70.40;;;;;;5015169;28;20046;-46
2021/08/06 01:31:34;;;;;;;1.90;1.75;;;22.20;70.40;;;;;;5014710;28;20119;-47
2021/08/06 01:34:00;;;;;;;2.63;2.30;;;22.10;70.30;;;;;;5013731;28;20474;-48
2021/08/06 01:36:25;;;;;;;2.20;1.80;;;22.30;70.50;;;;;;5015175;28;20474;-48
2021/08/06 01:38:52;;;;;;;2.30;2.10;;;22.20;70.40;;;;;;5014906;28;20042;-48
2021/08/06 01:41:21;;;;;;;2.33;2.13;;;22.30;70.50;;;;;;5014429;28;20042;-46
2021/08/06 01:43:58;;;;;;;2.47;2.28;;;22.20;70.40;;;;;;5014376;28;20046;-45
2021/08/06 01:46:49;;;;;;;2.30;2.10;;;22.30;70.50;;;;;;5013402;28;20045;-45
2021/08/06 01:49:21;;;;;;;2.20;1.98;;;22.20;70.40;;;;;;5014449;28;20410;-42
2021/08/06 01:51:54;;;;;;;2.30;2.10;;;22.20;70.50;;;;;;5014699;28;20104;-47
2021/08/06 01:54:22;;;;;;;2.10;1.90;;;22.20;70.50;;;;;;5012180;28;20397;-47
2021/08/06 01:56:49;;;;;;;2.30;2.08;;;22.20;70.50;;;;;;5014505;28;20052;-49
2021/08/06 01:59:16;;;;;;;2.30;2.10;;;22.20;70.50;;;;;;5014330;28;20049;-48
2021/08/06 02:01:42;;;;;;;2.58;2.22;;;22.20;70.50;;;;;;5014227;28;20069;-49
2021/08/06 02:04:09;;;;;;;2.40;2.20;;;22.20;70.50;;;;;;5013762;28;20065;-53
2021/08/06 02:06:35;;;;;;;2.60;2.40;;;22.20;70.50;;;;;;5013933;28;20096;-52
2021/08/06 02:09:01;;;;;;;2.40;2.20;;;22.20;70.50;;;;;;5014185;28;20107;-46
2021/08/06 02:11:27;;;;;;;2.35;2.15;;;22.20;70.50;;;;;;5014286;28;20454;-48
2021/08/06 02:13:53;;;;;;;2.30;2.10;;;22.20;70.50;;;;;;5013982;28;20077;-46
2021/08/06 02:16:24;;;;;;;2.55;2.35;;;22.20;70.50;;;;;;5013713;28;20084;-44
2021/08/06 02:18:51;;;;;;;2.53;2.33;;;22.20;70.50;;;;;;5013165;28;20049;-46
2021/08/06 02:21:22;;;;;;;2.97;2.67;;;22.20;70.50;;;;;;5011281;28;20172;-49
2021/08/06 02:23:50;;;;;;;2.30;2.10;;;22.20;70.50;;;;;;5013960;28;20092;-50
2021/08/06 02:26:18;;;;;;;2.50;2.30;;;22.10;70.50;;;;;;5013773;28;20380;-50
2021/08/06 02:28:46;;;;;;;2.70;2.30;;;22.20;70.60;;;;;;5013274;28;20120;-46
2021/08/06 02:31:13;;;;;;;2.25;2.03;;;22.10;70.50;;;;;;5013944;28;20049;-43
2021/08/06 02:33:39;;;;;;;2.70;2.22;;;22.20;70.60;;;;;;5013588;28;20065;-49
2021/08/06 02:36:05;;;;;;;2.50;2.30;;;22.20;70.50;;;;;;5013125;28;20068;-49
2021/08/06 02:38:31;;;;;;;4.03;2.80;;;22.20;70.60;;;;;;5013876;28;20546;-47
2021/08/06 02:40:56;;;;;;;2.58;2.38;;;22.20;70.50;;;;;;5013444;28;20050;-51
2021/08/06 02:43:22;;;;;;;2.55;2.35;;;22.10;70.50;;;;;;5013545;28;20041;-48
2021/08/06 02:45:49;;;;;;;2.85;2.42;;;22.20;70.60;;;;;;5013117;28;20121;-48
2021/08/06 02:48:15;;;;;;;2.20;2.00;;;22.20;70.60;;;;;;5013103;28;20072;-48
2021/08/06 02:50:41;;;;;;;2.53;2.33;;;22.20;70.60;;;;;;5013524;28;20046;-49
2021/08/06 02:53:07;;;;;;;2.92;2.42;;;22.10;70.50;;;;;;5013634;28;20081;-49
2021/08/06 02:55:33;;;;;;;2.53;2.33;;;22.10;70.60;;;;;;5013432;28;20049;-49
2021/08/06 02:57:59;;;;;;;2.53;2.33;;;22.20;70.60;;;;;;5013329;28;20418;-49
2021/08/06 03:00:25;;;;;;;2.50;2.30;;;22.10;70.50;;;;;;5012843;28;20117;-48
2021/08/06 03:02:51;;;;;;;3.28;2.30;;;22.10;70.60;;;;;;5012889;28;20449;-49
2021/08/06 03:05:16;;;;;;;2.20;2.00;;;22.10;70.60;;;;;;5013228;28;20099;-48
2021/08/06 03:07:52;;;;;;;2.28;2.03;;;22.10;70.60;;;;;;5013384;28;20489;-49
2021/08/06 03:10:20;;;;;;;2.45;2.25;;;22.10;70.60;;;;;;5010846;28;20049;-46
2021/08/06 03:12:46;;;;;;;2.20;2.00;;;22.10;70.60;;;;;;5012511;28;20065;-44
2021/08/06 03:15:14;;;;;;;2.38;2.08;;;22.10;70.60;;;;;;5012638;28;20127;-47
2021/08/06 03:17:41;;;;;;;2.28;2.08;;;22.10;70.60;;;;;;5012805;28;20084;-46
2021/08/06 03:20:12;;;;;;;2.35;2.15;;;22.10;70.60;;;;;;5027457;28;20117;-44
2021/08/06 03:22:39;;;;;;;2.53;2.33;;;22.10;70.60;;;;;;5010537;28;20509;-47
2021/08/06 03:25:07;;;;;;;2.30;2.10;;;22.10;70.60;;;;;;5012758;28;20394;-46
2021/08/06 03:27:33;;;;;;;2.50;2.30;;;22.10;70.60;;;;;;5012866;28;20069;-45
2021/08/06 03:30:00;;;;;;;2.40;2.20;;;22.10;70.60;;;;;;5012967;28;20457;-47
2021/08/06 03:32:25;;;;;;;2.30;2.10;;;22.10;70.70;;;;;;5012364;28;20042;-43
2021/08/06 03:34:51;;;;;;;2.45;2.25;;;22.10;70.60;;;;;;5011697;28;20038;-43
2021/08/06 03:37:17;;;;;;;2.30;2.10;;;22.10;70.70;;;;;;5012738;28;20042;-43
2021/08/06 03:39:43;;;;;;;2.67;2.08;;;22.10;70.70;;;;;;5012875;28;20116;-45
2021/08/06 03:42:09;;;;;;;2.40;2.10;;;22.10;70.70;;;;;;5012637;28;20116;-45
2021/08/06 03:44:35;;;;;;;2.25;2.05;;;22.00;70.60;;;;;;5011954;28;20100;-43
2021/08/06 03:47:00;;;;;;;2.20;2.00;;;22.10;70.70;;;;;;5012551;28;20045;-43
2021/08/06 03:49:26;;;;;;;2.35;1.92;;;22.10;70.70;;;;;;5011683;28;20042;-44
2021/08/06 03:51:52;;;;;;;2.85;2.20;;;22.10;70.70;;;;;;5012341;28;20128;-49
2021/08/06 03:54:17;;;;;;;2.50;2.30;;;22.10;70.70;;;;;;5012436;28;20045;-46
2021/08/06 03:56:43;;;;;;;2.55;2.35;;;22.10;70.70;;;;;;5012449;28;20053;-42
2021/08/06 03:59:09;;;;;;;2.40;2.13;;;22.00;70.70;;;;;;5012460;28;20042;-44
2021/08/06 04:01:35;;;;;;;2.30;2.10;;;22.10;70.80;;;;;;5012054;28;20060;-44
2021/08/06 04:04:00;;;;;;;2.47;2.28;;;22.00;70.70;;;;;;5011918;28;20049;-43
2021/08/06 04:06:26;;;;;;;2.00;1.80;;;22.10;70.70;;;;;;5011927;28;20046;-43
2021/08/06 04:08:52;;;;;;;2.47;2.28;;;22.00;70.70;;;;;;5012466;28;20143;-43
2021/08/06 04:11:20;;;;;;;3.00;2.40;;;22.10;70.70;;;;;;5012375;28;20530;-47
2021/08/06 04:13:46;;;;;;;2.35;2.15;;;22.00;70.70;;;;;;5010998;28;20107;-44
2021/08/06 04:16:12;;;;;;;2.30;2.10;;;22.10;70.70;;;;;;5011666;28;20054;-45
2021/08/06 04:18:38;;;;;;;2.45;2.25;;;22.00;70.70;;;;;;5011884;28;20042;-42
2021/08/06 04:21:04;;;;;;;2.60;2.38;;;22.10;70.80;;;;;;5012305;28;20100;-49
2021/08/06 04:23:30;;;;;;;2.47;2.28;;;22.10;70.70;;;;;;5012278;28;20466;-43
2021/08/06 04:25:55;;;;;;;2.30;2.10;;;22.10;70.70;;;;;;5012024;28;20121;-49
2021/08/06 04:28:21;;;;;;;2.08;1.88;;;22.00;70.70;;;;;;5011928;28;20042;-44
2021/08/06 04:30:49;;;;;;;2.40;2.20;;;22.00;70.70;;;;;;5014806;28;20129;-47
2021/08/06 04:33:15;;;;;;;2.47;2.28;;;22.00;71.00;;;;;;5015725;28;20046;-42
2021/08/06 04:35:40;;;;;;;2.40;2.20;;;22.00;70.70;;;;;;5015000;28;20185;-49
2021/08/06 04:38:06;;;;;;;3.03;2.38;;;22.00;70.70;;;;;;5015925;28;20046;-42
2021/08/06 04:40:32;;;;;;;2.88;2.20;;;22.00;70.70;;;;;;5016204;28;20490;-48
2021/08/06 04:42:58;;;;;;;2.28;2.08;;;22.00;70.70;;;;;;5016045;28;20137;-45
2021/08/06 04:45:23;;;;;;;2.22;2.03;;;22.00;70.70;;;;;;5015552;28;20544;-44
2021/08/06 04:47:51;;;;;;;2.70;2.20;;;22.00;70.70;;;;;;5015720;28;20164;-41
2021/08/06 04:50:20;;;;;;;2.42;2.22;;;22.00;70.70;;;;;;5012194;28;20048;-46
2021/08/06 04:52:46;;;;;;;2.28;2.10;;;22.00;70.70;;;;;;5015851;28;20062;-45
2021/08/06 04:55:12;;;;;;;2.30;2.10;;;22.00;70.70;;;;;;5014359;28;20081;-46
2021/08/06 04:57:38;;;;;;;2.20;2.00;;;22.00;70.70;;;;;;5013131;28;20049;-44
2021/08/06 05:00:06;;;;;;;2.22;2.03;;;22.00;70.70;;;;;;5011361;28;20041;-45
2021/08/06 05:02:32;;;;;;;2.40;2.20;;;22.00;70.80;;;;;;5011108;28;20064;-49
2021/08/06 05:04:58;;;;;;;2.40;2.20;;;22.00;70.80;;;;;;5011524;28;20042;-46
2021/08/06 05:07:24;;;;;;;2.15;2.00;;;22.00;70.80;;;;;;5011098;28;20052;-48
2021/08/06 05:09:49;;;;;;;2.30;2.10;;;22.00;70.70;;;;;;5011731;28;20049;-46
2021/08/06 05:12:15;;;;;;;3.00;1.88;;;22.00;70.80;;;;;;5011911;28;20076;-45
2021/08/06 05:14:41;;;;;;;2.45;2.25;;;22.00;70.80;;;;;;5011288;28;20085;-49
2021/08/06 05:17:10;;;;;;;3.03;2.47;;;22.00;70.80;;;;;;5011585;28;20042;-51
2021/08/06 05:19:36;;;;;;;1.98;1.83;;;22.00;70.80;;;;;;5011150;28;20077;-51
2021/08/06 05:22:02;;;;;;;2.30;2.10;;;22.00;70.80;;;;;;5010649;28;20983;-53
2021/08/06 05:24:34;;;;;;;2.50;2.30;;;22.00;70.80;;;;;;5011871;28;20069;-50
2021/08/06 05:27:02;;;;;;;2.47;2.28;;;22.00;70.70;;;;;;5010905;28;20057;-45
2021/08/06 05:29:28;;;;;;;2.28;2.08;;;22.00;70.80;;;;;;5011543;28;20089;-44
2021/08/06 05:31:55;;;;;;;2.38;2.15;;;22.00;70.80;;;;;;5011648;28;20042;-43
2021/08/06 05:34:20;;;;;;;2.17;1.95;;;22.00;70.80;;;;;;5011764;28;20048;-43
2021/08/06 05:36:46;;;;;;;1.98;1.88;;;22.00;70.80;;;;;;5010664;28;20129;-46
2021/08/06 05:39:11;;;;;;;2.28;2.08;;;22.00;70.80;;;;;;5009987;28;20049;-46
2021/08/06 05:41:37;;;;;;;2.35;2.10;;;22.00;70.80;;;;;;5010350;28;20498;-41
2021/08/06 05:44:04;;;;;;;2.15;1.95;;;22.00;70.80;;;;;;5011625;28;20046;-46
2021/08/06 05:46:29;;;;;;;2.33;1.90;;;22.00;70.80;;;;;;5011149;28;20736;-46
2021/08/06 05:48:55;;;;;;;2.15;1.95;;;21.90;70.80;;;;;;5011194;28;20045;-47
2021/08/06 05:51:21;;;;;;;2.50;1.77;;;22.00;70.80;;;;;;5010803;28;20049;-49
2021/08/06 05:53:46;;;;;;;2.10;1.90;;;22.00;70.80;;;;;;5011010;28;20509;-45
2021/08/06 05:56:12;;;;;;;2.35;2.15;;;22.00;70.80;;;;;;5011329;28;20050;-43
2021/08/06 05:58:38;;;;;;;2.15;1.95;;;22.00;70.90;;;;;;5010952;28;20128;-44
2021/08/06 06:01:08;;;;;;;2.67;2.05;;;22.00;70.90;;;;;;5010940;28;20060;-47
2021/08/06 06:03:33;;;;;;;1.83;1.70;;;22.00;70.90;;;;;;5010654;28;20054;-43
2021/08/06 06:05:59;;;;;;;2.00;1.80;;;22.00;70.80;;;;;;5010890;28;20049;-40
2021/08/06 06:08:26;;;;;;;2.10;1.90;;;22.00;70.90;;;;;;5010176;28;20049;-42
2021/08/06 06:10:53;;;;;;;2.58;2.38;;;21.90;70.80;;;;;;5011276;28;20702;-48
2021/08/06 06:13:19;;;;;;;2.33;2.13;;;22.00;70.90;;;;;;5011098;28;20057;-40
2021/08/06 06:15:45;;;;;;;2.28;2.08;;;22.00;70.80;;;;;;5009772;28;20052;-41
2021/08/06 06:18:11;;;;;;;2.20;1.90;;;22.00;70.90;;;;;;5010448;28;20490;-46
2021/08/06 06:20:37;;;;;;;1.95;1.77;;;22.00;70.90;;;;;;5010335;28;20119;-44
2021/08/06 06:23:03;;;;;;;1.98;1.80;;;22.00;70.90;;;;;;5010316;28;20410;-46
2021/08/06 06:25:30;;;;;;;1.88;1.77;;;22.00;70.90;;;;;;5010408;28;20076;-41
2021/08/06 06:28:02;;;;;;;1.95;1.75;;;22.00;70.90;;;;;;5009749;28;20557;-45
2021/08/06 06:30:32;;;;;;;2.10;1.90;;;22.00;70.90;;;;;;5008832;28;20065;-47
2021/08/06 06:33:00;;;;;;;2.00;1.90;;;22.00;70.90;;;;;;5010544;28;20076;-46
2021/08/06 06:35:27;;;;;;;1.70;1.60;;;22.00;70.90;;;;;;5010123;28;20078;-45
2021/08/06 06:37:53;;;;;;;2.13;1.92;;;22.00;70.90;;;;;;5009927;28;20033;-47
2021/08/06 06:40:21;;;;;;;1.70;1.60;;;22.00;70.90;;;;;;5009812;28;20069;-43
2021/08/06 06:42:47;;;;;;;2.38;2.05;;;22.00;70.90;;;;;;5007855;28;20125;-44
2021/08/06 06:45:15;;;;;;;1.88;1.70;;;21.90;70.80;;;;;;5010168;28;20044;-47
2021/08/06 06:47:47;;;;;;;2.05;1.83;;;22.00;70.90;;;;;;5010105;28;20172;-45
2021/08/06 06:50:16;;;;;;;2.40;1.98;;;22.00;70.90;;;;;;5009883;28;20056;-43
2021/08/06 06:52:43;;;;;;;2.15;1.95;;;22.00;70.90;;;;;;5009901;28;20041;-48
2021/08/06 06:55:09;;;;;;;1.73;1.63;;;22.00;70.90;;;;;;5009942;28;20069;-47
2021/08/06 06:57:41;;;;;;;1.95;1.75;;;22.00;70.90;;;;;;5009441;28;20573;-44
2021/08/06 07:00:07;;;;;;;1.88;1.75;;;22.00;70.90;;;;;;5007361;28;20398;-46
2021/08/06 07:02:33;;;;;;;2.00;1.80;;;22.00;70.90;;;;;;5009536;28;20081;-43
2021/08/06 07:04:59;;;;;;;1.80;1.70;;;22.00;70.90;;;;;;5009739;28;20525;-47
2021/08/06 07:07:25;;;;;;;2.08;1.88;;;22.00;70.90;;;;;;5009667;28;20042;-44
2021/08/06 07:09:50;;;;;;;1.90;1.70;;;22.00;70.90;;;;;;5009649;28;20045;-43
2021/08/06 07:12:16;;;;;;;1.83;1.73;;;22.00;70.90;;;;;;5009502;28;20394;-48
2021/08/06 07:14:42;;;;;;;1.73;1.63;;;22.00;70.90;;;;;;5009409;28;20046;-42
2021/08/06 07:17:07;;;;;;;1.75;1.63;;;22.00;70.90;;;;;;5009866;28;20073;-44
2021/08/06 07:19:33;;;;;;;1.98;1.77;;;22.00;70.90;;;;;;5005358;28;20100;-52
2021/08/06 07:21:59;;;;;;;2.10;1.90;;;22.00;70.90;;;;;;5000774;28;20057;-43
2021/08/06 07:24:25;;;;;;;2.10;1.90;;;22.00;70.90;;;;;;5009026;28;20073;-43
2021/08/06 07:26:50;;;;;;;1.92;1.73;;;22.00;70.90;;;;;;5008390;28;20046;-51
2021/08/06 07:29:16;;;;;;;1.95;1.80;;;22.00;70.90;;;;;;5008914;28;20046;-45
2021/08/06 07:31:42;;;;;;;2.30;1.90;;;22.00;70.90;;;;;;5008913;28;20042;-44
2021/08/06 07:34:08;;;;;;;1.95;1.80;;;22.00;70.90;;;;;;5007455;28;20686;-45
2021/08/06 07:36:33;;;;;;;2.05;1.85;;;22.00;70.90;;;;;;5008853;28;20057;-46
2021/08/06 07:38:59;;;;;;;1.60;1.50;;;22.00;70.90;;;;;;5007938;28;20261;-46
2021/08/06 07:41:25;;;;;;;1.73;1.60;;;22.00;70.90;;;;;;5008618;28;20044;-48
2021/08/06 07:43:50;;;;;;;1.63;1.52;;;22.00;70.90;;;;;;5008534;28;20092;-45
2021/08/06 07:46:16;;;;;;;1.75;1.63;;;22.00;70.90;;;;;;5009087;28;20141;-48
2021/08/06 07:48:42;;;;;;;2.25;1.70;;;22.00;70.90;;;;;;5008773;28;20049;-47
2021/08/06 07:51:08;;;;;;;1.95;1.83;;;22.00;70.90;;;;;;5003355;28;20392;-41
2021/08/06 07:53:33;;;;;;;2.25;2.00;;;22.00;71.20;;;;;;5008430;28;20058;-47
2021/08/06 07:55:59;;;;;;;1.98;1.70;;;22.00;71.20;;;;;;5008729;28;20822;-41
2021/08/06 07:58:25;;;;;;;1.40;1.30;;;22.10;71.40;;;;;;5007299;28;20128;-45
2021/08/06 08:00:50;;;;;;;2.25;1.80;;;22.00;71.30;;;;;;5008303;28;20042;-44
2021/08/06 08:03:16;;;;;;;1.98;1.73;;;22.00;71.30;;;;;;5008704;28;20125;-44
2021/08/06 08:05:42;;;;;;;1.98;1.77;;;22.00;71.30;;;;;;5013503;28;20095;-46
2021/08/06 08:08:07;;;;;;;1.50;1.40;;;22.00;71.20;;;;;;5014995;28;20148;-50
2021/08/06 08:10:35;;;;;;;2.08;1.95;;;22.10;71.20;;;;;;5012970;28;20510;-46
2021/08/06 08:13:00;;;;;;;1.80;1.70;;;22.00;71.10;;;;;;5013044;28;20495;-48
2021/08/06 08:15:27;;;;;;;1.80;1.70;;;22.00;71.10;;;;;;5013501;28;20064;-44
2021/08/06 08:17:53;;;;;;;1.63;1.52;;;22.00;71.10;;;;;;5015112;28;20084;-52
2021/08/06 08:20:19;;;;;;;1.95;1.77;;;22.00;71.10;;;;;;5013558;28;20042;-50
2021/08/06 08:22:45;;;;;;;1.90;1.70;;;22.00;71.10;;;;;;5014277;28;20068;-49
2021/08/06 08:25:11;;;;;;;1.60;1.50;;;22.00;71.00;;;;;;5014764;28;20045;-47
2021/08/06 08:27:37;;;;;;;2.00;1.80;;;22.00;71.00;;;;;;5013398;28;20050;-42
2021/08/06 08:30:06;;;;;;;1.63;1.52;;;22.00;71.00;;;;;;5013776;28;20050;-45
2021/08/06 08:32:34;;;;;;;1.52;1.42;;;22.00;71.00;;;;;;5014095;28;20053;-45
2021/08/06 08:35:00;;;;;;;1.92;1.80;;;22.00;71.10;;;;;;5013509;28;20049;-51
2021/08/06 08:37:25;;;;;;;1.77;1.67;;;22.00;71.00;;;;;;5014093;28;20068;-47
2021/08/06 08:39:52;;;;;;;1.52;1.42;;;22.00;71.00;;;;;;5013423;28;20072;-45
2021/08/06 08:42:18;;;;;;;1.65;1.55;;;22.00;71.00;;;;;;5013100;28;20086;-44
2021/08/06 08:44:48;;;;;;;1.60;1.50;;;22.00;71.00;;;;;;5014085;28;20132;-41
2021/08/06 08:47:17;;;;;;;1.50;1.40;;;22.00;71.00;;;;;;5014338;28;20561;-43
2021/08/06 08:49:49;;;;;;;1.88;1.77;;;22.00;71.10;;;;;;5012355;28;20131;-40
2021/08/06 08:52:18;;;;;;;2.05;1.83;;;22.00;71.20;;;;;;5014150;28;20046;-46
2021/08/06 08:54:43;;;;;;;1.60;1.50;;;22.00;71.20;;;;;;5014606;28;20045;-46
2021/08/06 08:57:09;;;;;;;2.33;1.60;;;22.00;71.30;;;;;;5012701;28;20413;-41
2021/08/06 08:59:35;;;;;;;1.63;1.52;;;22.10;71.40;;;;;;5013713;28;20049;-44
2021/08/06 09:02:01;;;;;;;1.60;1.50;;;22.00;71.40;;;;;;5014427;28;20054;-45
2021/08/06 09:04:29;;;;;;;1.73;1.63;;;22.00;71.50;;;;;;5014010;28;20077;-46
2021/08/06 09:06:58;;;;;;;1.40;1.30;;;22.00;71.50;;;;;;5007088;28;20161;-42
2021/08/06 09:09:26;;;;;;;1.65;1.55;;;22.10;71.60;;;;;;4995673;28;20046;-44
2021/08/06 09:12:06;;;;;;;1.88;1.67;;;22.00;71.50;;;;;;5011901;28;20049;-48
2021/08/06 09:14:34;;;;;;;1.42;1.30;;;22.00;71.50;;;;;;5011174;28;20046;-46
2021/08/06 09:17:06;;;;;;;1.58;1.48;;;22.00;71.50;;;;;;5011458;28;20061;-45
2021/08/06 09:19:43;;;;;;;1.20;1.10;;;22.00;71.50;;;;;;5010295;28;20485;-46
2021/08/06 09:22:38;;;;;;;1.48;1.38;;;21.90;71.50;;;;;;5010772;28;20184;-47
2021/08/06 09:25:10;;;;;;;1.70;1.60;;;22.00;71.50;;;;;;5009764;28;20061;-46
2021/08/06 09:27:42;;;;;;;1.40;1.30;;;22.00;71.70;;;;;;5007855;28;20153;-46
2021/08/06 09:30:33;;;;;;;1.40;1.30;;;22.00;71.70;;;;;;5007331;28;20454;-47
2021/08/06 09:32:59;;;;;;;1.92;1.50;;;22.00;71.70;;;;;;5010262;28;20069;-51
2021/08/06 09:35:27;;;;;;;1.58;1.48;;;22.00;71.60;;;;;;5010279;28;20414;-44
2021/08/06 09:37:54;;;;;;;1.70;1.27;;;22.00;71.50;;;;;;5010000;28;20050;-45
2021/08/06 09:40:23;;;;;;;1.70;1.60;;;22.00;71.50;;;;;;5010490;28;20049;-42
2021/08/06 09:43:01;;;;;;;1.95;1.75;;;22.00;71.50;;;;;;5009316;28;20133;-45
2021/08/06 09:45:47;;;;;;;1.98;1.77;;;22.00;71.60;;;;;;5009722;28;20414;-44
2021/08/06 09:48:13;;;;;;;1.58;1.40;;;22.00;71.50;;;;;;5007683;28;20125;-44
2021/08/06 09:50:45;;;;;;;1.50;1.40;;;22.00;71.50;;;;;;5008977;28;20156;-46
2021/08/06 09:53:12;;;;;;;1.60;1.50;;;22.00;71.50;;;;;;5023643;28;20075;-43
2021/08/06 09:55:43;;;;;;;1.60;1.50;;;22.00;71.60;;;;;;5009582;28;20053;-48
2021/08/06 09:58:11;;;;;;;1.40;1.30;;;22.10;71.70;;;;;;5009805;28;20042;-52
2021/08/06 10:00:49;;;;;;;1.60;1.50;;;22.00;71.80;;;;;;5010684;28;20050;-46
2021/08/06 10:03:25;;;;;;;1.50;1.40;;;22.10;71.80;;;;;;5010515;28;20134;-43
2021/08/06 10:06:06;;;;;;;1.40;1.30;;;22.00;71.80;;;;;;5011012;28;20046;-45
2021/08/06 10:08:33;;;;;;;1.52;1.42;;;22.10;71.90;;;;;;5010976;28;20046;-49
2021/08/06 10:10:59;;;;;;;1.80;1.70;;;22.00;71.80;;;;;;5011124;28;20053;-46
2021/08/06 10:13:26;;;;;;;1.30;1.20;;;22.00;71.80;;;;;;5011123;28;20046;-47
2021/08/06 10:15:52;;;;;;;1.58;1.48;;;22.00;71.70;;;;;;5010563;28;20085;-45
2021/08/06 10:18:18;;;;;;;1.33;1.23;;;21.90;71.50;;;;;;5008569;28;20410;-46
2021/08/06 10:20:48;;;;;;;1.48;1.38;;;22.00;71.50;;;;;;5010893;28;20041;-47
2021/08/06 10:23:14;;;;;;;1.25;1.10;;;22.00;71.60;;;;;;5011043;28;20482;-52
2021/08/06 10:25:40;;;;;;;1.05;1.05;;;22.00;71.50;;;;;;5010839;28;20057;-48
2021/08/06 10:28:07;;;;;;;1.45;1.35;;;22.00;71.60;;;;;;5010588;28;20107;-46
2021/08/06 10:30:35;;;;;;;1.75;1.65;;;22.00;71.70;;;;;;5010466;28;20045;-48
2021/08/06 10:33:26;;;;;;;1.42;1.33;;;22.00;71.80;;;;;;5011066;28;20153;-50
2021/08/06 10:36:05;;;;;;;1.38;1.27;;;22.00;71.80;;;;;;5010263;28;20045;-45
2021/08/06 10:38:44;;;;;;;1.45;1.35;;;22.00;71.80;;;;;;5009797;28;20050;-45
2021/08/06 10:41:14;;;;;;;1.20;1.10;;;22.00;71.90;;;;;;5001265;28;20089;-46
2021/08/06 10:43:56;;;;;;;1.58;1.48;;;22.00;72.00;;;;;;5010771;28;20506;-43
2021/08/06 10:46:22;;;;;;;1.67;1.48;;;22.00;72.00;;;;;;5010753;28;20065;-44
2021/08/06 10:48:51;;;;;;;1.30;1.20;;;22.00;72.10;;;;;;5010279;28;20475;-44
2021/08/06 10:51:16;;;;;;;1.30;1.20;;;22.00;72.30;;;;;;5010184;28;20042;-44
2021/08/06 10:53:48;;;;;;;1.13;1.10;;;22.00;73.00;;;;;;5010596;28;20103;-43
2021/08/06 10:56:17;;;;;;;1.45;1.30;;;21.90;72.30;;;;;;5010300;28;20056;-53
2021/08/06 10:58:49;;;;;;;1.75;1.40;;;22.00;72.40;;;;;;5010388;28;20092;-47
2021/08/06 11:01:31;;;;;;;1.42;1.33;;;22.00;72.50;;;;;;5009703;28;20400;-43
2021/08/06 11:04:15;;;;;;;1.55;1.40;;;22.00;72.40;;;;;;5010166;28;20046;-45
2021/08/06 11:06:52;;;;;;;1.60;1.40;;;22.00;72.40;;;;;;5009856;28;20132;-51
2021/08/06 11:09:27;;;;;;;1.60;1.50;;;22.10;72.40;;;;;;5009660;28;20056;-45
2021/08/06 11:12:12;;;;;;;1.33;1.23;;;22.00;72.40;;;;;;5010436;28;20042;-52
2021/08/06 11:14:40;;;;;;;1.33;1.23;;;22.00;73.00;;;;;;5010233;28;20100;-44
2021/08/06 11:17:08;;;;;;;1.02;0.98;;;22.00;72.40;;;;;;5009747;28;20148;-46
2021/08/06 11:19:55;;;;;;;1.38;1.17;;;22.10;72.30;;;;;;5009828;28;20042;-43
2021/08/06 11:22:28;;;;;;;1.40;1.30;;;22.00;72.10;;;;;;5009699;28;20080;-42
2021/08/06 11:25:15;;;;;;;1.20;1.10;;;22.00;72.10;;;;;;5010099;28;20057;-48
2021/08/06 11:27:43;;;;;;;1.20;1.10;;;22.10;72.10;;;;;;5009887;28;20112;-40
2021/08/06 11:30:19;;;;;;;1.60;1.40;;;22.00;72.00;;;;;;5009834;28;20052;-36
2021/08/06 11:32:47;;;;;;;1.42;1.27;;;22.00;72.00;;;;;;5009860;28;20128;-38
2021/08/06 11:35:16;;;;;;;1.60;1.30;;;22.10;72.00;;;;;;5010243;28;20491;-46
2021/08/06 11:37:58;;;;;;;1.60;1.50;;;22.10;72.00;;;;;;5008642;28;20051;-44
2021/08/06 11:40:45;;;;;;;1.80;1.20;;;22.10;71.90;;;;;;5009009;28;20057;-41
2021/08/06 11:43:19;;;;;;;1.50;1.10;;;22.10;71.90;;;;;;5009523;28;20571;-45
2021/08/06 11:45:48;;;;;;;1.58;1.30;;;22.10;71.90;;;;;;5010084;28;20156;-46
2021/08/06 11:48:14;;;;;;;1.98;1.25;;;22.10;72.00;;;;;;5009883;28;20081;-43
2021/08/06 11:50:44;;;;;;;1.50;1.40;;;22.10;72.10;;;;;;5008853;28;20058;-40
2021/08/06 11:53:14;;;;;;;1.15;1.05;;;22.10;72.20;;;;;;5009132;28;20045;-45
2021/08/06 11:55:40;;;;;;;1.33;1.23;;;22.10;72.30;;;;;;5010089;28;20050;-42
2021/08/06 11:58:06;;;;;;;1.17;1.13;;;22.10;72.20;;;;;;5009595;28;20529;-40
2021/08/06 12:00:34;;;;;;;1.27;1.17;;;22.10;72.20;;;;;;5009023;28;20057;-44
2021/08/06 12:03:06;;;;;;;1.40;1.30;;;22.20;72.20;;;;;;5009196;28;20506;-45
2021/08/06 12:05:33;;;;;;;1.02;0.93;;;22.20;72.20;;;;;;5009328;28;20580;-44
2021/08/06 12:08:24;;;;;;;1.17;1.08;;;22.10;72.20;;;;;;5009139;28;20049;-49
2021/08/06 12:11:05;;;;;;;0.93;0.90;;;22.20;72.20;;;;;;5009407;28;20046;-41
2021/08/06 12:13:39;;;;;;;1.17;1.08;;;22.10;72.20;;;;;;4989738;28;20548;-47
2021/08/06 12:16:10;;;;;;;1.23;1.13;;;22.20;72.20;;;;;;4989635;28;20058;-54
2021/08/06 12:18:40;;;;;;;1.48;1.13;;;22.30;72.10;;;;;;4989704;28;20499;-47
2021/08/06 12:21:29;;;;;;;1.13;1.02;;;22.20;72.00;;;;;;4997033;28;20560;-44
2021/08/06 12:24:02;;;;;;;1.08;0.98;;;22.20;72.00;;;;;;5008803;28;20058;-40
2021/08/06 12:26:30;;;;;;;1.38;1.20;;;22.20;71.90;;;;;;5009102;28;20054;-42
2021/08/06 12:29:14;;;;;;;1.67;1.38;;;22.20;71.90;;;;;;5009236;28;20429;-46
2021/08/06 12:31:50;;;;;;;1.20;1.10;;;22.20;71.70;;;;;;5009118;28;20142;-44
2021/08/06 12:34:20;;;;;;;1.50;1.20;;;22.20;71.70;;;;;;5009200;28;20093;-48
2021/08/06 12:37:00;;;;;;;1.52;1.35;;;22.20;72.10;;;;;;5009126;28;20129;-43
2021/08/06 12:39:28;;;;;;;4.63;1.95;;;22.20;71.70;;;;;;5025671;28;20053;-50
2021/08/06 12:42:07;;;;;;;2.80;1.85;;;22.20;71.60;;;;;;5012817;28;20100;-50
2021/08/06 12:44:33;;;;;;;2.28;1.80;;;22.20;71.70;;;;;;5009155;28;20053;-50
2021/08/06 12:47:15;;;;;;;4.43;2.10;;;22.20;71.70;;;;;;5008874;28;20046;-47
2021/08/06 12:50:00;;;;;;;4.40;3.00;;;22.20;71.80;;;;;;5009221;28;20057;-50
2021/08/06 12:52:35;;;;;;;6.28;2.78;;;22.20;71.80;;;;;;5011608;28;20048;-45
2021/08/06 12:55:10;;;;;;;3.65;2.30;;;22.20;71.70;;;;;;5012484;28;20718;-43
2021/08/06 12:57:47;;;;;;;3.33;2.25;;;22.20;71.60;;;;;;5012813;28;20053;-51